sensor_id;sensor_type;location;lat;lon;timestamp;temperature;humidity
46037;DHT22;31769;49.304;8.428;2023-11-21T00:01:30;9.40;99.90
46037;DHT22;31769;49.304;8.428;2023-11-21T00:04:31;9.40;99.90
46037;DHT22;31769;49.304;8.428;2023-11-21T00:07:31;9.40;99.90
46037;DHT22;31769;49.304;8.428;2023-11-21T00:10:32;9.40;99.90
46037;DHT22;31769;49.304;8.428;2023-11-21T00:13:33;9.40;99.90
46037;DHT22;31769;49.304;8.428;2023-11-21T00:16:34;9.40;99.90
46037;DHT22;31769;49.304;8.428;2023-11-21T00:19:35;9.40;99.90
46037;DHT22;31769;49.304;8.428;2023-11-21T00:22:36;9.40;99.90
46037;DHT22;31769;49.304;8.428;2023-11-21T00:25:37;9.40;99.90
46037;DHT22;31769;49.304;8.428;2023-11-21T00:28:37;9.40;99.90
46037;DHT22;31769;49.304;8.428;2023-11-21T00:31:38;9.40;99.90
46037;DHT22;31769;49.304;8.428;2023-11-21T00:34:40;9.40;99.90
46037;DHT22;31769;49.304;8.428;2023-11-21T00:37:40;9.40;99.90
46037;DHT22;31769;49.304;8.428;2023-11-21T00:40:42;9.50;99.90
46037;DHT22;31769;49.304;8.428;2023-11-21T00:43:43;9.50;99.90
46037;DHT22;31769;49.304;8.428;2023-11-21T00:46:44;9.50;99.90
46037;DHT22;31769;49.304;8.428;2023-11-21T00:49:45;9.50;99.90
46037;DHT22;31769;49.304;8.428;2023-11-21T00:52:46;9.50;99.90
46037;DHT22;31769;49.304;8.428;2023-11-21T00:55:47;9.50;99.90
46037;DHT22;31769;49.304;8.428;2023-11-21T00:58:48;9.50;99.90
46037;DHT22;31769;49.304;8.428;2023-11-21T01:01:52;9.40;99.90
46037;DHT22;31769;49.304;8.428;2023-11-21T01:04:54;9.40;99.90
46037;DHT22;31769;49.304;8.428;2023-11-21T01:07:55;9.40;99.90
46037;DHT22;31769;49.304;8.428;2023-11-21T01:10:56;9.40;99.90
46037;DHT22;31769;49.304;8.428;2023-11-21T01:13:56;9.40;99.90
46037;DHT22;31769;49.304;8.428;2023-11-21T01:16:58;9.30;99.90
46037;DHT22;31769;49.304;8.428;2023-11-21T01:20:00;9.30;99.90
46037;DHT22;31769;49.304;8.428;2023-11-21T01:23:00;9.30;99.90
46037;DHT22;31769;49.304;8.428;2023-11-21T01:26:02;9.30;99.90
46037;DHT22;31769;49.304;8.428;2023-11-21T01:29:03;9.30;99.90
46037;DHT22;31769;49.304;8.428;2023-11-21T01:32:05;9.30;99.90
46037;DHT22;31769;49.304;8.428;2023-11-21T01:35:08;9.30;99.90
46037;DHT22;31769;49.304;8.428;2023-11-21T01:38:10;9.30;99.90
46037;DHT22;31769;49.304;8.428;2023-11-21T01:41:11;9.30;99.90
46037;DHT22;31769;49.304;8.428;2023-11-21T01:44:14;9.30;99.90
46037;DHT22;31769;49.304;8.428;2023-11-21T01:47:16;9.40;99.90
46037;DHT22;31769;49.304;8.428;2023-11-21T01:50:17;9.40;99.90
46037;DHT22;31769;49.304;8.428;2023-11-21T01:53:18;9.40;99.90
46037;DHT22;31769;49.304;8.428;2023-11-21T01:56:19;9.40;99.90
46037;DHT22;31769;49.304;8.428;2023-11-21T01:59:21;9.40;99.90
46037;DHT22;31769;49.304;8.428;2023-11-21T02:02:23;9.40;99.90
46037;DHT22;31769;49.304;8.428;2023-11-21T02:05:25;9.40;99.90
46037;DHT22;31769;49.304;8.428;2023-11-21T02:08:26;9.50;99.90
46037;DHT22;31769;49.304;8.428;2023-11-21T02:11:27;9.40;99.90
46037;DHT22;31769;49.304;8.428;2023-11-21T02:14:28;9.40;99.90
46037;DHT22;31769;49.304;8.428;2023-11-21T02:17:29;9.50;99.90
46037;DHT22;31769;49.304;8.428;2023-11-21T02:20:29;9.40;99.90
46037;DHT22;31769;49.304;8.428;2023-11-21T02:23:30;9.50;99.90
46037;DHT22;31769;49.304;8.428;2023-11-21T02:26:31;9.40;99.90
46037;DHT22;31769;49.304;8.428;2023-11-21T02:29:31;9.50;99.90
46037;DHT22;31769;49.304;8.428;2023-11-21T02:32:32;9.40;99.90
46037;DHT22;31769;49.304;8.428;2023-11-21T02:35:33;9.40;99.90
46037;DHT22;31769;49.304;8.428;2023-11-21T02:38:33;9.50;99.90
46037;DHT22;31769;49.304;8.428;2023-11-21T02:41:35;9.40;99.90
46037;DHT22;31769;49.304;8.428;2023-11-21T02:44:36;9.40;99.90
46037;DHT22;31769;49.304;8.428;2023-11-21T02:47:37;9.30;99.90
46037;DHT22;31769;49.304;8.428;2023-11-21T02:50:37;9.30;99.90
46037;DHT22;31769;49.304;8.428;2023-11-21T02:53:38;9.30;99.90
46037;DHT22;31769;49.304;8.428;2023-11-21T02:56:39;9.30;99.90
46037;DHT22;31769;49.304;8.428;2023-11-21T02:59:40;9.30;99.90
46037;DHT22;31769;49.304;8.428;2023-11-21T03:02:41;9.30;99.90
46037;DHT22;31769;49.304;8.428;2023-11-21T03:05:43;9.30;99.90
46037;DHT22;31769;49.304;8.428;2023-11-21T03:08:44;9.30;99.90
46037;DHT22;31769;49.304;8.428;2023-11-21T03:11:45;9.30;99.90
46037;DHT22;31769;49.304;8.428;2023-11-21T03:14:46;9.30;99.90
46037;DHT22;31769;49.304;8.428;2023-11-21T03:17:46;9.30;99.90
46037;DHT22;31769;49.304;8.428;2023-11-21T03:20:49;9.30;99.90
46037;DHT22;31769;49.304;8.428;2023-11-21T03:23:50;9.30;99.90
46037;DHT22;31769;49.304;8.428;2023-11-21T03:26:52;9.30;99.90
46037;DHT22;31769;49.304;8.428;2023-11-21T03:29:53;9.30;99.90
46037;DHT22;31769;49.304;8.428;2023-11-21T03:32:55;9.30;99.90
46037;DHT22;31769;49.304;8.428;2023-11-21T03:35:55;9.30;99.90
46037;DHT22;31769;49.304;8.428;2023-11-21T03:38:56;9.30;99.90
46037;DHT22;31769;49.304;8.428;2023-11-21T03:41:57;9.30;99.90
46037;DHT22;31769;49.304;8.428;2023-11-21T03:44:57;9.30;99.90
46037;DHT22;31769;49.304;8.428;2023-11-21T03:47:58;9.30;99.90
46037;DHT22;31769;49.304;8.428;2023-11-21T03:50:59;9.30;99.90
46037;DHT22;31769;49.304;8.428;2023-11-21T03:54:01;9.30;99.90
46037;DHT22;31769;49.304;8.428;2023-11-21T03:57:01;9.30;99.90
46037;DHT22;31769;49.304;8.428;2023-11-21T04:00:03;9.30;99.90
46037;DHT22;31769;49.304;8.428;2023-11-21T04:03:12;9.30;99.90
46037;DHT22;31769;49.304;8.428;2023-11-21T04:06:14;9.30;99.90
46037;DHT22;31769;49.304;8.428;2023-11-21T04:09:14;9.30;99.90
46037;DHT22;31769;49.304;8.428;2023-11-21T04:12:15;9.40;99.90
46037;DHT22;31769;49.304;8.428;2023-11-21T04:15:16;9.30;99.90
46037;DHT22;31769;49.304;8.428;2023-11-21T04:18:17;9.40;99.90
46037;DHT22;31769;49.304;8.428;2023-11-21T04:21:18;9.40;99.90
46037;DHT22;31769;49.304;8.428;2023-11-21T04:24:19;9.40;99.90
46037;DHT22;31769;49.304;8.428;2023-11-21T04:27:19;9.40;99.90
46037;DHT22;31769;49.304;8.428;2023-11-21T04:30:20;9.40;99.90
46037;DHT22;31769;49.304;8.428;2023-11-21T04:33:21;9.40;99.90
46037;DHT22;31769;49.304;8.428;2023-11-21T04:36:22;9.40;99.90
46037;DHT22;31769;49.304;8.428;2023-11-21T04:39:23;9.30;99.90
46037;DHT22;31769;49.304;8.428;2023-11-21T04:42:24;9.40;99.90
46037;DHT22;31769;49.304;8.428;2023-11-21T04:45:25;9.40;99.90
46037;DHT22;31769;49.304;8.428;2023-11-21T04:48:25;9.40;99.90
46037;DHT22;31769;49.304;8.428;2023-11-21T04:51:26;9.40;99.90
46037;DHT22;31769;49.304;8.428;2023-11-21T04:54:27;9.30;99.90
46037;DHT22;31769;49.304;8.428;2023-11-21T04:57:28;9.30;99.90
46037;DHT22;31769;49.304;8.428;2023-11-21T05:00:29;9.30;99.90
46037;DHT22;31769;49.304;8.428;2023-11-21T05:03:29;9.30;99.90
46037;DHT22;31769;49.304;8.428;2023-11-21T05:06:30;9.30;99.90
46037;DHT22;31769;49.304;8.428;2023-11-21T05:09:31;9.20;99.90
46037;DHT22;31769;49.304;8.428;2023-11-21T05:12:32;9.30;99.90
46037;DHT22;31769;49.304;8.428;2023-11-21T05:15:37;9.20;99.90
46037;DHT22;31769;49.304;8.428;2023-11-21T05:18:39;9.20;99.90
46037;DHT22;31769;49.304;8.428;2023-11-21T05:21:40;9.20;99.90
46037;DHT22;31769;49.304;8.428;2023-11-21T05:24:41;9.10;99.90
46037;DHT22;31769;49.304;8.428;2023-11-21T05:27:42;9.20;99.90
46037;DHT22;31769;49.304;8.428;2023-11-21T05:30:43;9.20;99.90
46037;DHT22;31769;49.304;8.428;2023-11-21T05:33:44;9.10;99.90
46037;DHT22;31769;49.304;8.428;2023-11-21T05:36:45;9.10;99.90
46037;DHT22;31769;49.304;8.428;2023-11-21T05:39:46;9.20;99.90
46037;DHT22;31769;49.304;8.428;2023-11-21T05:42:47;9.10;99.90
46037;DHT22;31769;49.304;8.428;2023-11-21T05:45:48;9.30;99.90
46037;DHT22;31769;49.304;8.428;2023-11-21T05:48:49;9.20;99.90
46037;DHT22;31769;49.304;8.428;2023-11-21T05:51:50;9.30;99.90
46037;DHT22;31769;49.304;8.428;2023-11-21T05:54:54;9.30;99.90
46037;DHT22;31769;49.304;8.428;2023-11-21T05:57:55;9.30;99.90
46037;DHT22;31769;49.304;8.428;2023-11-21T06:00:55;9.40;99.90
46037;DHT22;31769;49.304;8.428;2023-11-21T06:03:56;9.30;99.90
46037;DHT22;31769;49.304;8.428;2023-11-21T06:06:57;9.40;99.90
46037;DHT22;31769;49.304;8.428;2023-11-21T06:09:57;9.50;99.90
46037;DHT22;31769;49.304;8.428;2023-11-21T06:12:58;9.50;99.90
46037;DHT22;31769;49.304;8.428;2023-11-21T06:15:58;9.60;99.90
46037;DHT22;31769;49.304;8.428;2023-11-21T06:18:59;9.60;99.90
46037;DHT22;31769;49.304;8.428;2023-11-21T06:22:00;9.60;99.90
46037;DHT22;31769;49.304;8.428;2023-11-21T06:25:01;9.60;99.90
46037;DHT22;31769;49.304;8.428;2023-11-21T06:28:03;9.60;99.90
46037;DHT22;31769;49.304;8.428;2023-11-21T06:31:04;9.60;99.90
46037;DHT22;31769;49.304;8.428;2023-11-21T06:34:05;9.70;99.90
46037;DHT22;31769;49.304;8.428;2023-11-21T06:37:06;9.60;99.90
46037;DHT22;31769;49.304;8.428;2023-11-21T06:40:07;9.60;99.90
46037;DHT22;31769;49.304;8.428;2023-11-21T06:43:08;9.60;99.90
46037;DHT22;31769;49.304;8.428;2023-11-21T06:46:10;9.60;99.90
46037;DHT22;31769;49.304;8.428;2023-11-21T06:49:11;9.60;99.90
46037;DHT22;31769;49.304;8.428;2023-11-21T06:52:12;9.70;99.90
46037;DHT22;31769;49.304;8.428;2023-11-21T06:55:13;9.70;99.90
46037;DHT22;31769;49.304;8.428;2023-11-21T06:58:13;9.80;99.90
46037;DHT22;31769;49.304;8.428;2023-11-21T07:01:15;9.80;99.90
46037;DHT22;31769;49.304;8.428;2023-11-21T07:04:15;9.80;99.90
46037;DHT22;31769;49.304;8.428;2023-11-21T07:07:18;9.90;99.90
46037;DHT22;31769;49.304;8.428;2023-11-21T07:10:18;9.90;99.90
46037;DHT22;31769;49.304;8.428;2023-11-21T07:13:19;9.90;99.90
46037;DHT22;31769;49.304;8.428;2023-11-21T07:16:20;10.00;99.90
46037;DHT22;31769;49.304;8.428;2023-11-21T07:19:21;10.00;99.90
46037;DHT22;31769;49.304;8.428;2023-11-21T07:22:22;10.10;99.90
46037;DHT22;31769;49.304;8.428;2023-11-21T07:25:22;10.10;99.90
46037;DHT22;31769;49.304;8.428;2023-11-21T07:28:24;10.10;99.90
46037;DHT22;31769;49.304;8.428;2023-11-21T07:31:26;10.20;99.90
46037;DHT22;31769;49.304;8.428;2023-11-21T07:34:27;10.20;99.90
46037;DHT22;31769;49.304;8.428;2023-11-21T07:37:27;10.10;99.90
46037;DHT22;31769;49.304;8.428;2023-11-21T07:40:31;10.20;99.90
46037;DHT22;31769;49.304;8.428;2023-11-21T07:43:32;10.20;99.90
46037;DHT22;31769;49.304;8.428;2023-11-21T07:46:35;10.20;99.90
46037;DHT22;31769;49.304;8.428;2023-11-21T07:49:36;10.10;99.90
46037;DHT22;31769;49.304;8.428;2023-11-21T07:52:37;10.20;99.90
46037;DHT22;31769;49.304;8.428;2023-11-21T07:55:37;10.20;99.90
46037;DHT22;31769;49.304;8.428;2023-11-21T07:58:38;10.20;99.90
46037;DHT22;31769;49.304;8.428;2023-11-21T08:01:39;10.20;99.90
46037;DHT22;31769;49.304;8.428;2023-11-21T08:04:41;10.20;99.90
46037;DHT22;31769;49.304;8.428;2023-11-21T08:07:41;10.20;99.90
46037;DHT22;31769;49.304;8.428;2023-11-21T08:10:42;10.20;99.90
46037;DHT22;31769;49.304;8.428;2023-11-21T08:13:43;10.30;99.90
46037;DHT22;31769;49.304;8.428;2023-11-21T08:16:44;10.30;99.90
46037;DHT22;31769;49.304;8.428;2023-11-21T08:19:45;10.30;99.90
46037;DHT22;31769;49.304;8.428;2023-11-21T08:22:50;10.40;99.90
46037;DHT22;31769;49.304;8.428;2023-11-21T08:25:53;10.40;99.90
46037;DHT22;31769;49.304;8.428;2023-11-21T08:28:54;10.40;99.90
46037;DHT22;31769;49.304;8.428;2023-11-21T08:31:57;10.40;99.90
46037;DHT22;31769;49.304;8.428;2023-11-21T08:34:58;10.50;99.90
46037;DHT22;31769;49.304;8.428;2023-11-21T08:37:58;10.40;99.90
46037;DHT22;31769;49.304;8.428;2023-11-21T08:40:59;10.40;99.90
46037;DHT22;31769;49.304;8.428;2023-11-21T08:44:00;10.50;99.90
46037;DHT22;31769;49.304;8.428;2023-11-21T08:47:01;10.40;99.90
46037;DHT22;31769;49.304;8.428;2023-11-21T08:50:02;10.40;99.90
46037;DHT22;31769;49.304;8.428;2023-11-21T08:53:03;10.40;99.90
46037;DHT22;31769;49.304;8.428;2023-11-21T08:56:04;10.50;99.90
46037;DHT22;31769;49.304;8.428;2023-11-21T08:59:05;10.50;99.90
46037;DHT22;31769;49.304;8.428;2023-11-21T09:02:08;10.50;99.90
46037;DHT22;31769;49.304;8.428;2023-11-21T09:05:10;10.50;99.90
46037;DHT22;31769;49.304;8.428;2023-11-21T09:08:11;10.40;99.90
46037;DHT22;31769;49.304;8.428;2023-11-21T09:11:12;10.50;99.90
46037;DHT22;31769;49.304;8.428;2023-11-21T09:14:13;10.40;99.90
46037;DHT22;31769;49.304;8.428;2023-11-21T09:17:15;10.40;99.90
46037;DHT22;31769;49.304;8.428;2023-11-21T09:20:16;10.40;99.90
46037;DHT22;31769;49.304;8.428;2023-11-21T09:23:17;10.40;99.90
46037;DHT22;31769;49.304;8.428;2023-11-21T09:26:18;10.40;99.90
46037;DHT22;31769;49.304;8.428;2023-11-21T09:29:19;10.40;99.90
46037;DHT22;31769;49.304;8.428;2023-11-21T09:32:20;10.40;99.90
46037;DHT22;31769;49.304;8.428;2023-11-21T09:35:22;10.40;99.90
46037;DHT22;31769;49.304;8.428;2023-11-21T09:38:23;10.40;99.90
46037;DHT22;31769;49.304;8.428;2023-11-21T09:41:34;10.50;99.90
46037;DHT22;31769;49.304;8.428;2023-11-21T09:45:15;10.50;99.90
46037;DHT22;31769;49.304;8.428;2023-11-21T09:48:14;10.50;99.90
46037;DHT22;31769;49.304;8.428;2023-11-21T09:51:19;10.50;99.90
46037;DHT22;31769;49.304;8.428;2023-11-21T09:54:22;10.40;99.90
46037;DHT22;31769;49.304;8.428;2023-11-21T09:57:24;10.40;99.90
46037;DHT22;31769;49.304;8.428;2023-11-21T10:00:26;10.30;99.90
46037;DHT22;31769;49.304;8.428;2023-11-21T10:03:28;10.30;99.90
46037;DHT22;31769;49.304;8.428;2023-11-21T10:06:29;10.30;99.90
46037;DHT22;31769;49.304;8.428;2023-11-21T10:09:31;10.40;99.90
46037;DHT22;31769;49.304;8.428;2023-11-21T10:12:32;10.40;99.90
46037;DHT22;31769;49.304;8.428;2023-11-21T10:15:34;10.40;99.90
46037;DHT22;31769;49.304;8.428;2023-11-21T10:18:35;10.40;99.90
46037;DHT22;31769;49.304;8.428;2023-11-21T10:21:40;10.40;99.90
46037;DHT22;31769;49.304;8.428;2023-11-21T10:24:41;10.40;99.90
46037;DHT22;31769;49.304;8.428;2023-11-21T10:27:47;10.50;99.90
46037;DHT22;31769;49.304;8.428;2023-11-21T10:30:48;10.50;99.90
46037;DHT22;31769;49.304;8.428;2023-11-21T10:33:49;10.60;99.90
46037;DHT22;31769;49.304;8.428;2023-11-21T10:36:49;10.70;99.90
46037;DHT22;31769;49.304;8.428;2023-11-21T10:39:50;10.90;99.90
46037;DHT22;31769;49.304;8.428;2023-11-21T10:42:51;10.90;99.90
46037;DHT22;31769;49.304;8.428;2023-11-21T10:45:52;11.00;99.90
46037;DHT22;31769;49.304;8.428;2023-11-21T10:48:53;11.00;99.90
46037;DHT22;31769;49.304;8.428;2023-11-21T10:51:56;11.00;99.90
46037;DHT22;31769;49.304;8.428;2023-11-21T10:54:57;10.90;99.90
46037;DHT22;31769;49.304;8.428;2023-11-21T10:58:01;10.90;99.90
46037;DHT22;31769;49.304;8.428;2023-11-21T11:01:06;10.80;99.90
46037;DHT22;31769;49.304;8.428;2023-11-21T11:04:08;10.80;99.90
46037;DHT22;31769;49.304;8.428;2023-11-21T11:07:15;10.80;99.90
46037;DHT22;31769;49.304;8.428;2023-11-21T11:10:16;10.80;99.90
46037;DHT22;31769;49.304;8.428;2023-11-21T11:13:21;10.80;99.90
46037;DHT22;31769;49.304;8.428;2023-11-21T11:16:23;10.90;99.90
46037;DHT22;31769;49.304;8.428;2023-11-21T11:19:25;11.00;99.90
46037;DHT22;31769;49.304;8.428;2023-11-21T11:29:10;11.40;99.90
46037;DHT22;31769;49.304;8.428;2023-11-21T11:32:34;11.40;99.90
46037;DHT22;31769;49.304;8.428;2023-11-21T11:35:56;11.30;99.90
46037;DHT22;31769;49.304;8.428;2023-11-21T11:39:00;11.10;99.90
46037;DHT22;31769;49.304;8.428;2023-11-21T11:42:04;11.00;99.90
46037;DHT22;31769;49.304;8.428;2023-11-21T11:45:17;10.90;99.90
46037;DHT22;31769;49.304;8.428;2023-11-21T11:48:22;10.90;99.90
46037;DHT22;31769;49.304;8.428;2023-11-21T11:51:22;10.90;99.90
46037;DHT22;31769;49.304;8.428;2023-11-21T11:54:36;10.90;99.90
46037;DHT22;31769;49.304;8.428;2023-11-21T11:57:38;11.10;99.90
46037;DHT22;31769;49.304;8.428;2023-11-21T12:00:39;11.20;99.90
46037;DHT22;31769;49.304;8.428;2023-11-21T12:03:40;11.30;99.90
46037;DHT22;31769;49.304;8.428;2023-11-21T12:06:42;11.40;99.90
46037;DHT22;31769;49.304;8.428;2023-11-21T12:09:42;11.60;99.90
46037;DHT22;31769;49.304;8.428;2023-11-21T12:13:01;11.90;99.90
46037;DHT22;31769;49.304;8.428;2023-11-21T12:16:02;12.20;99.90
46037;DHT22;31769;49.304;8.428;2023-11-21T12:19:02;12.40;99.90
46037;DHT22;31769;49.304;8.428;2023-11-21T12:22:03;12.40;99.90
46037;DHT22;31769;49.304;8.428;2023-11-21T12:25:04;12.50;99.90
46037;DHT22;31769;49.304;8.428;2023-11-21T12:28:05;12.80;99.90
46037;DHT22;31769;49.304;8.428;2023-11-21T12:31:06;13.10;99.90
46037;DHT22;31769;49.304;8.428;2023-11-21T12:34:11;13.20;99.90
46037;DHT22;31769;49.304;8.428;2023-11-21T12:37:12;13.10;99.90
46037;DHT22;31769;49.304;8.428;2023-11-21T12:40:14;13.10;99.90
46037;DHT22;31769;49.304;8.428;2023-11-21T12:43:17;12.80;99.90
46037;DHT22;31769;49.304;8.428;2023-11-21T12:46:18;12.70;99.90
46037;DHT22;31769;49.304;8.428;2023-11-21T12:49:20;12.80;99.90
46037;DHT22;31769;49.304;8.428;2023-11-21T12:52:22;12.70;99.90
46037;DHT22;31769;49.304;8.428;2023-11-21T12:55:23;12.60;99.90
46037;DHT22;31769;49.304;8.428;2023-11-21T12:58:25;12.70;99.90
46037;DHT22;31769;49.304;8.428;2023-11-21T13:01:26;12.80;99.90
46037;DHT22;31769;49.304;8.428;2023-11-21T13:04:32;13.00;99.90
46037;DHT22;31769;49.304;8.428;2023-11-21T13:07:42;13.30;99.90
46037;DHT22;31769;49.304;8.428;2023-11-21T13:10:52;13.40;99.90
46037;DHT22;31769;49.304;8.428;2023-11-21T13:13:55;13.30;99.90
46037;DHT22;31769;49.304;8.428;2023-11-21T13:16:57;13.50;99.90
46037;DHT22;31769;49.304;8.428;2023-11-21T13:19:57;13.90;99.90
46037;DHT22;31769;49.304;8.428;2023-11-21T13:22:58;14.50;99.90
46037;DHT22;31769;49.304;8.428;2023-11-21T13:25:59;15.40;99.90
46037;DHT22;31769;49.304;8.428;2023-11-21T13:29:04;15.90;99.90
46037;DHT22;31769;49.304;8.428;2023-11-21T13:32:05;16.20;99.90
46037;DHT22;31769;49.304;8.428;2023-11-21T13:35:07;16.30;99.90
46037;DHT22;31769;49.304;8.428;2023-11-21T13:38:16;16.50;99.90
46037;DHT22;31769;49.304;8.428;2023-11-21T13:41:30;16.60;99.90
46037;DHT22;31769;49.304;8.428;2023-11-21T13:44:31;16.50;99.90
46037;DHT22;31769;49.304;8.428;2023-11-21T13:47:38;17.00;99.90
46037;DHT22;31769;49.304;8.428;2023-11-21T13:50:40;18.40;99.90
46037;DHT22;31769;49.304;8.428;2023-11-21T13:53:49;19.50;99.90
46037;DHT22;31769;49.304;8.428;2023-11-21T13:56:53;19.80;99.90
46037;DHT22;31769;49.304;8.428;2023-11-21T13:59:55;19.40;99.90
46037;DHT22;31769;49.304;8.428;2023-11-21T14:02:56;18.10;99.90
46037;DHT22;31769;49.304;8.428;2023-11-21T14:06:00;17.00;99.90
46037;DHT22;31769;49.304;8.428;2023-11-21T14:09:09;16.30;99.90
46037;DHT22;31769;49.304;8.428;2023-11-21T14:12:09;15.50;99.90
46037;DHT22;31769;49.304;8.428;2023-11-21T14:15:13;15.00;99.90
46037;DHT22;31769;49.304;8.428;2023-11-21T14:18:17;14.60;99.90
46037;DHT22;31769;49.304;8.428;2023-11-21T14:21:26;14.40;99.90
46037;DHT22;31769;49.304;8.428;2023-11-21T14:24:27;14.30;99.90
46037;DHT22;31769;49.304;8.428;2023-11-21T14:27:29;14.10;99.90
46037;DHT22;31769;49.304;8.428;2023-11-21T14:30:30;14.00;99.90
46037;DHT22;31769;49.304;8.428;2023-11-21T14:33:33;14.00;99.90
46037;DHT22;31769;49.304;8.428;2023-11-21T14:36:34;14.00;99.90
46037;DHT22;31769;49.304;8.428;2023-11-21T14:39:37;13.90;99.90
46037;DHT22;31769;49.304;8.428;2023-11-21T14:42:44;13.80;99.90
46037;DHT22;31769;49.304;8.428;2023-11-21T14:45:48;13.60;99.90
46037;DHT22;31769;49.304;8.428;2023-11-21T14:48:49;13.30;99.90
46037;DHT22;31769;49.304;8.428;2023-11-21T14:52:02;13.40;99.90
46037;DHT22;31769;49.304;8.428;2023-11-21T14:55:08;13.70;99.90
46037;DHT22;31769;49.304;8.428;2023-11-21T14:58:32;13.90;99.90
46037;DHT22;31769;49.304;8.428;2023-11-21T15:01:33;14.50;99.90
46037;DHT22;31769;49.304;8.428;2023-11-21T15:04:55;15.20;99.90
46037;DHT22;31769;49.304;8.428;2023-11-21T15:08:02;14.80;99.90
46037;DHT22;31769;49.304;8.428;2023-11-21T15:11:20;14.30;99.90
46037;DHT22;31769;49.304;8.428;2023-11-21T15:14:25;13.60;99.90
46037;DHT22;31769;49.304;8.428;2023-11-21T15:17:32;13.10;99.90
46037;DHT22;31769;49.304;8.428;2023-11-21T15:20:33;12.70;99.90
46037;DHT22;31769;49.304;8.428;2023-11-21T15:23:33;12.50;99.90
46037;DHT22;31769;49.304;8.428;2023-11-21T15:26:35;12.70;99.90
46037;DHT22;31769;49.304;8.428;2023-11-21T15:29:36;12.80;99.90
46037;DHT22;31769;49.304;8.428;2023-11-21T15:32:36;12.50;99.90
46037;DHT22;31769;49.304;8.428;2023-11-21T15:35:37;12.20;99.90
46037;DHT22;31769;49.304;8.428;2023-11-21T15:38:40;11.90;99.90
46037;DHT22;31769;49.304;8.428;2023-11-21T15:41:40;11.60;99.90
46037;DHT22;31769;49.304;8.428;2023-11-21T15:44:42;11.50;99.90
46037;DHT22;31769;49.304;8.428;2023-11-21T15:47:42;11.40;99.90
46037;DHT22;31769;49.304;8.428;2023-11-21T15:50:43;11.30;99.90
46037;DHT22;31769;49.304;8.428;2023-11-21T15:53:44;11.30;99.90
46037;DHT22;31769;49.304;8.428;2023-11-21T15:56:45;11.20;99.90
46037;DHT22;31769;49.304;8.428;2023-11-21T15:59:45;11.20;99.90
46037;DHT22;31769;49.304;8.428;2023-11-21T16:02:46;11.20;99.90
46037;DHT22;31769;49.304;8.428;2023-11-21T16:05:47;11.10;99.90
46037;DHT22;31769;49.304;8.428;2023-11-21T16:08:48;11.10;99.90
46037;DHT22;31769;49.304;8.428;2023-11-21T16:11:52;11.10;99.90
46037;DHT22;31769;49.304;8.428;2023-11-21T16:14:58;11.10;99.90
46037;DHT22;31769;49.304;8.428;2023-11-21T16:17:59;11.10;99.90
46037;DHT22;31769;49.304;8.428;2023-11-21T16:21:00;11.10;99.90
46037;DHT22;31769;49.304;8.428;2023-11-21T16:24:00;11.10;99.90
46037;DHT22;31769;49.304;8.428;2023-11-21T16:27:02;11.00;99.90
46037;DHT22;31769;49.304;8.428;2023-11-21T16:30:06;11.10;99.90
46037;DHT22;31769;49.304;8.428;2023-11-21T16:33:09;11.00;99.90
46037;DHT22;31769;49.304;8.428;2023-11-21T16:36:09;11.00;99.90
46037;DHT22;31769;49.304;8.428;2023-11-21T16:39:11;11.00;99.90
46037;DHT22;31769;49.304;8.428;2023-11-21T16:42:14;10.90;99.90
46037;DHT22;31769;49.304;8.428;2023-11-21T16:45:15;10.80;99.90
46037;DHT22;31769;49.304;8.428;2023-11-21T16:48:16;10.90;99.90
46037;DHT22;31769;49.304;8.428;2023-11-21T16:51:18;10.80;99.90
46037;DHT22;31769;49.304;8.428;2023-11-21T16:54:19;10.80;99.90
46037;DHT22;31769;49.304;8.428;2023-11-21T16:57:20;10.70;99.90
46037;DHT22;31769;49.304;8.428;2023-11-21T17:00:20;10.70;99.90
46037;DHT22;31769;49.304;8.428;2023-11-21T17:03:23;10.70;99.90
46037;DHT22;31769;49.304;8.428;2023-11-21T17:06:24;10.70;99.90
46037;DHT22;31769;49.304;8.428;2023-11-21T17:09:26;10.70;99.90
46037;DHT22;31769;49.304;8.428;2023-11-21T17:12:27;10.70;99.90
46037;DHT22;31769;49.304;8.428;2023-11-21T17:15:28;10.60;99.90
46037;DHT22;31769;49.304;8.428;2023-11-21T17:18:28;10.70;99.90
46037;DHT22;31769;49.304;8.428;2023-11-21T17:21:30;10.60;99.90
46037;DHT22;31769;49.304;8.428;2023-11-21T17:24:30;10.70;99.90
46037;DHT22;31769;49.304;8.428;2023-11-21T17:27:33;10.70;99.90
46037;DHT22;31769;49.304;8.428;2023-11-21T17:30:33;10.70;99.90
46037;DHT22;31769;49.304;8.428;2023-11-21T17:33:35;10.60;99.90
46037;DHT22;31769;49.304;8.428;2023-11-21T17:36:36;10.60;99.90
46037;DHT22;31769;49.304;8.428;2023-11-21T17:39:39;10.60;99.90
46037;DHT22;31769;49.304;8.428;2023-11-21T17:42:41;10.60;99.90
46037;DHT22;31769;49.304;8.428;2023-11-21T17:45:41;10.70;99.90
46037;DHT22;31769;49.304;8.428;2023-11-21T17:48:42;10.60;99.90
46037;DHT22;31769;49.304;8.428;2023-11-21T17:51:43;10.60;99.90
46037;DHT22;31769;49.304;8.428;2023-11-21T17:54:44;10.60;99.90
46037;DHT22;31769;49.304;8.428;2023-11-21T17:57:45;10.60;99.90
46037;DHT22;31769;49.304;8.428;2023-11-21T18:00:46;10.60;99.90
46037;DHT22;31769;49.304;8.428;2023-11-21T18:03:47;10.50;99.90
46037;DHT22;31769;49.304;8.428;2023-11-21T18:06:48;10.50;99.90
46037;DHT22;31769;49.304;8.428;2023-11-21T18:09:49;10.50;99.90
46037;DHT22;31769;49.304;8.428;2023-11-21T18:12:50;10.50;99.90
46037;DHT22;31769;49.304;8.428;2023-11-21T18:15:51;10.50;99.90
46037;DHT22;31769;49.304;8.428;2023-11-21T18:18:52;10.50;99.90
46037;DHT22;31769;49.304;8.428;2023-11-21T18:21:52;10.50;99.90
46037;DHT22;31769;49.304;8.428;2023-11-21T18:24:53;10.50;99.90
46037;DHT22;31769;49.304;8.428;2023-11-21T18:27:54;10.50;99.90
46037;DHT22;31769;49.304;8.428;2023-11-21T18:30:55;10.60;99.90
46037;DHT22;31769;49.304;8.428;2023-11-21T18:33:56;10.50;99.90
46037;DHT22;31769;49.304;8.428;2023-11-21T18:36:56;10.50;99.90
46037;DHT22;31769;49.304;8.428;2023-11-21T18:39:57;10.60;99.90
46037;DHT22;31769;49.304;8.428;2023-11-21T18:42:58;10.50;99.90
46037;DHT22;31769;49.304;8.428;2023-11-21T18:46:00;10.50;99.90
46037;DHT22;31769;49.304;8.428;2023-11-21T18:49:01;10.40;99.90
46037;DHT22;31769;49.304;8.428;2023-11-21T18:52:02;10.40;99.90
46037;DHT22;31769;49.304;8.428;2023-11-21T18:55:04;10.40;99.90
46037;DHT22;31769;49.304;8.428;2023-11-21T18:58:05;10.40;99.90
46037;DHT22;31769;49.304;8.428;2023-11-21T19:01:05;10.40;99.90
46037;DHT22;31769;49.304;8.428;2023-11-21T19:04:06;10.40;99.90
46037;DHT22;31769;49.304;8.428;2023-11-21T19:07:07;10.40;99.90
46037;DHT22;31769;49.304;8.428;2023-11-21T19:10:07;10.40;99.90
46037;DHT22;31769;49.304;8.428;2023-11-21T19:13:11;10.40;99.90
46037;DHT22;31769;49.304;8.428;2023-11-21T19:16:11;11.30;99.90
46037;DHT22;31769;49.304;8.428;2023-11-21T19:19:15;10.30;99.90
46037;DHT22;31769;49.304;8.428;2023-11-21T19:22:16;10.30;99.90
46037;DHT22;31769;49.304;8.428;2023-11-21T19:25:16;10.30;99.90